createdAt,value
2022-12-16T00:00:46.760Z,36.97
2022-12-16T00:02:48.730Z,41.37
2022-12-16T00:04:50.482Z,43.03
2022-12-16T00:06:52.399Z,39.13
2022-12-16T00:08:56.897Z,37.77
2022-12-16T00:11:02.420Z,38.67
2022-12-16T00:13:08.868Z,42.10
2022-12-16T00:15:12.112Z,46.17
2022-12-16T00:17:14.044Z,41.97
2022-12-16T00:19:15.723Z,41.30
2022-12-16T00:21:20.574Z,43.93
2022-12-16T00:23:23.484Z,40.20
2022-12-16T00:25:25.125Z,49.70
2022-12-16T00:27:26.868Z,50.10
2022-12-16T00:29:28.704Z,45.70
2022-12-16T00:31:30.491Z,44.63
2022-12-16T00:33:33.533Z,43.83
2022-12-16T00:35:35.599Z,46.23
2022-12-16T00:37:37.272Z,53.97
2022-12-16T00:39:39.296Z,44.80
2022-12-16T00:41:41.228Z,46.90
2022-12-16T00:43:42.860Z,41.00
2022-12-16T00:45:46.192Z,41.50
2022-12-16T00:47:50.428Z,39.43
2022-12-16T00:49:53.741Z,42.97
2022-12-16T00:51:56.684Z,45.50
2022-12-16T00:53:58.401Z,41.17
2022-12-16T00:56:10.705Z,41.87
2022-12-16T00:58:13.043Z,48.00
2022-12-16T01:00:16.284Z,40.07
2022-12-16T01:02:18.374Z,42.77
2022-12-16T01:04:20.139Z,41.20
2022-12-16T01:06:21.987Z,43.83
2022-12-16T01:08:24.034Z,36.70
2022-12-16T01:10:26.252Z,39.67
2022-12-16T01:12:28.236Z,42.47
2022-12-16T01:14:29.899Z,41.20
2022-12-16T01:16:31.821Z,44.93
2022-12-16T01:18:33.954Z,42.10
2022-12-16T01:20:35.949Z,39.27
2022-12-16T01:22:38.038Z,38.60
2022-12-16T01:24:40.012Z,47.83
2022-12-16T01:26:41.663Z,34.70
2022-12-16T01:28:43.616Z,41.87
2022-12-16T01:30:45.350Z,43.63
2022-12-16T01:32:47.289Z,36.97
2022-12-16T01:34:55.482Z,45.40
2022-12-16T01:36:57.724Z,43.90
2022-12-16T01:38:59.348Z,41.33
2022-12-16T01:41:01.636Z,41.70
2022-12-16T01:43:12.127Z,42.23
2022-12-16T01:45:35.954Z,46.43
2022-12-16T01:47:37.980Z,46.87
2022-12-16T01:49:59.217Z,44.40
2022-12-16T01:52:05.420Z,41.70
2022-12-16T01:54:16.697Z,44.10
2022-12-16T01:56:21.448Z,43.63
2022-12-16T01:58:27.921Z,44.23
2022-12-16T02:00:29.635Z,44.00
2022-12-16T02:02:31.541Z,44.53
2022-12-16T02:04:33.538Z,47.30
2022-12-16T02:06:35.557Z,45.50
2022-12-16T02:08:37.480Z,42.20
2022-12-16T02:10:41.948Z,45.13
2022-12-16T02:13:07.445Z,42.97
2022-12-16T02:15:26.746Z,40.33
2022-12-16T02:17:50.262Z,41.73
2022-12-16T02:20:13.213Z,36.60
2022-12-16T02:22:52.969Z,42.77
2022-12-16T02:25:15.623Z,42.50
2022-12-16T02:27:31.320Z,41.67
2022-12-16T02:30:06.901Z,40.70
2022-12-16T02:32:22.786Z,48.40
2022-12-16T02:34:39.640Z,42.10
2022-12-16T02:36:47.335Z,45.83
2022-12-16T02:39:09.905Z,41.43
2022-12-16T02:41:31.874Z,41.60
2022-12-16T02:43:52.173Z,41.30
2022-12-16T02:45:54.167Z,39.87
2022-12-16T02:47:56.232Z,42.20
2022-12-16T02:49:58.051Z,44.07
2022-12-16T02:52:01.789Z,40.33
2022-12-16T02:54:05.007Z,37.90
2022-12-16T02:56:37.448Z,37.70
2022-12-16T02:58:52.279Z,40.20
2022-12-16T03:01:06.463Z,38.20
2022-12-16T03:03:14.097Z,39.83
2022-12-16T03:05:22.190Z,41.97
2022-12-16T03:07:27.103Z,41.13
2022-12-16T03:09:33.479Z,40.97
2022-12-16T03:11:36.705Z,44.57
2022-12-16T03:13:48.761Z,46.90
2022-12-16T03:15:56.265Z,45.47
2022-12-16T03:17:59.416Z,43.90
2022-12-16T03:20:10.614Z,47.30
2022-12-16T03:22:18.715Z,48.03
2022-12-16T03:24:20.804Z,54.80
2022-12-16T03:26:28.288Z,48.20
2022-12-16T03:28:39.214Z,53.67
2022-12-16T03:30:52.126Z,48.63
2022-12-16T03:33:16.384Z,50.57
2022-12-16T03:35:50.985Z,46.87
2022-12-16T03:37:57.532Z,51.83
2022-12-16T03:40:03.187Z,55.13
2022-12-16T03:42:06.052Z,54.13
2022-12-16T03:44:08.930Z,48.17
2022-12-16T03:46:13.148Z,42.53
2022-12-16T03:48:16.887Z,46.10
2022-12-16T03:50:31.638Z,43.70
2022-12-16T03:52:33.336Z,48.57
2022-12-16T03:54:35.230Z,47.57
2022-12-16T03:56:37.250Z,48.77
2022-12-16T03:58:40.426Z,49.93
2022-12-16T04:00:42.318Z,53.23
2022-12-16T04:02:44.592Z,51.10
2022-12-16T04:04:46.808Z,47.53
2022-12-16T04:07:08.477Z,49.80
2022-12-16T04:09:10.467Z,56.23
2022-12-16T04:11:31.293Z,46.90
2022-12-16T04:13:51.935Z,52.63
2022-12-16T04:16:12.233Z,53.67
2022-12-16T04:18:35.368Z,49.37
2022-12-16T04:20:59.059Z,50.80
2022-12-16T04:23:19.329Z,48.33
2022-12-16T04:25:22.680Z,51.53
2022-12-16T04:27:27.866Z,44.27
2022-12-16T04:29:29.847Z,46.40
2022-12-16T04:31:31.705Z,46.50
2022-12-16T04:33:52.027Z,41.87
2022-12-16T04:36:12.516Z,43.73
2022-12-16T04:38:33.135Z,43.80
2022-12-16T04:40:53.570Z,48.20
2022-12-16T04:43:15.889Z,50.30
2022-12-16T04:45:36.624Z,51.63
2022-12-16T04:47:57.648Z,45.03
2022-12-16T04:50:18.430Z,46.53
2022-12-16T04:52:38.886Z,44.97
2022-12-16T04:54:59.480Z,48.00
2022-12-16T04:57:19.709Z,46.10
2022-12-16T04:59:39.981Z,51.47
2022-12-16T05:02:00.687Z,43.70
2022-12-16T05:04:21.401Z,47.03
2022-12-16T05:06:41.755Z,54.03
2022-12-16T05:09:02.123Z,50.83
2022-12-16T05:11:22.950Z,52.77
2022-12-16T05:13:43.172Z,49.50
2022-12-16T05:16:03.630Z,47.00
2022-12-16T05:18:29.022Z,46.30
2022-12-16T05:20:49.159Z,47.30
2022-12-16T05:23:09.376Z,43.33
2022-12-16T05:25:29.766Z,44.43
2022-12-16T05:27:50.301Z,47.30
2022-12-16T05:30:10.364Z,44.97
2022-12-16T05:32:30.864Z,40.20
2022-12-16T05:34:51.044Z,44.90
2022-12-16T05:37:11.365Z,39.70
2022-12-16T05:39:31.566Z,38.77
2022-12-16T05:41:52.026Z,40.80
2022-12-16T05:44:12.205Z,41.40
2022-12-16T05:46:32.821Z,46.97
2022-12-16T05:49:13.355Z,43.37
2022-12-16T05:51:33.581Z,41.90
2022-12-16T05:53:53.653Z,38.73
2022-12-16T05:56:14.428Z,44.17
2022-12-16T05:58:34.849Z,39.90
2022-12-16T06:00:55.773Z,39.23
2022-12-16T06:03:16.019Z,37.67
2022-12-16T06:05:36.484Z,41.30
2022-12-16T06:07:56.650Z,39.90
2022-12-16T06:10:16.701Z,42.90
2022-12-16T06:12:37.158Z,39.60
2022-12-16T06:14:57.405Z,44.30
2022-12-16T06:17:18.126Z,39.23
2022-12-16T06:19:38.750Z,39.37
2022-12-16T06:21:59.044Z,45.97
2022-12-16T06:24:19.268Z,41.00
2022-12-16T06:26:39.538Z,39.77
2022-12-16T06:28:59.708Z,36.97
2022-12-16T06:31:20.370Z,36.77
2022-12-16T06:33:40.803Z,35.40
2022-12-16T06:36:01.037Z,41.50
2022-12-16T06:38:21.352Z,37.03
2022-12-16T06:40:41.619Z,43.43
2022-12-16T06:43:02.231Z,32.80
2022-12-16T06:45:22.589Z,37.77
2022-12-16T06:47:42.884Z,35.33
2022-12-16T06:50:03.009Z,35.70
2022-12-16T06:52:27.702Z,37.47
2022-12-16T06:54:48.309Z,33.53
2022-12-16T06:57:08.468Z,32.37
2022-12-16T06:59:28.593Z,31.40
2022-12-16T07:01:48.867Z,36.40
2022-12-16T07:04:09.345Z,34.03
2022-12-16T07:06:29.626Z,35.40
2022-12-16T07:08:49.977Z,33.27
2022-12-16T07:11:16.559Z,32.40
2022-12-16T07:13:37.584Z,31.13
2022-12-16T07:15:57.756Z,28.73
2022-12-16T07:18:17.885Z,28.73
2022-12-16T07:20:38.268Z,29.90
2022-12-16T07:23:13.117Z,29.87
2022-12-16T07:25:38.000Z,24.20
2022-12-16T07:27:58.367Z,25.90
2022-12-16T07:30:18.573Z,22.30
2022-12-16T07:32:38.656Z,26.10
2022-12-16T07:34:59.028Z,26.57
2022-12-16T07:37:19.187Z,21.87
2022-12-16T07:39:39.395Z,25.73
2022-12-16T07:41:59.601Z,26.30
2022-12-16T07:44:19.697Z,23.60
2022-12-16T07:46:40.116Z,23.70
2022-12-16T07:49:00.600Z,20.40
2022-12-16T07:51:20.698Z,22.77
2022-12-16T07:53:41.575Z,22.40
2022-12-16T07:56:01.801Z,24.80
2022-12-16T07:58:22.040Z,28.93
2022-12-16T08:00:42.263Z,21.20
2022-12-16T08:03:02.492Z,21.47
2022-12-16T08:05:22.896Z,25.97
2022-12-16T08:07:42.992Z,25.20
2022-12-16T08:10:03.329Z,23.13
2022-12-16T08:12:23.703Z,26.53
2022-12-16T08:14:44.125Z,24.40
2022-12-16T08:17:04.162Z,23.87
2022-12-16T08:19:24.666Z,23.83
2022-12-16T08:21:45.197Z,21.23
2022-12-16T08:24:05.496Z,26.33
2022-12-16T08:26:26.370Z,24.43
2022-12-16T08:29:05.540Z,22.73
2022-12-16T08:31:37.529Z,21.53
2022-12-16T08:33:57.744Z,20.73
2022-12-16T08:36:18.653Z,20.37
2022-12-16T08:38:39.004Z,21.43
2022-12-16T08:41:01.168Z,21.37
2022-12-16T08:43:21.708Z,19.13
2022-12-16T08:45:42.647Z,21.90
2022-12-16T08:48:02.958Z,22.20
2022-12-16T08:50:24.243Z,24.67
2022-12-16T08:52:44.451Z,21.30
2022-12-16T08:55:04.627Z,20.53
2022-12-16T08:57:24.847Z,18.90
2022-12-16T08:59:45.175Z,23.00
2022-12-16T09:02:05.686Z,19.67
2022-12-16T09:04:26.372Z,21.53
2022-12-16T09:06:49.781Z,16.77
2022-12-16T09:09:09.923Z,19.10
2022-12-16T09:11:30.176Z,19.93
2022-12-16T09:13:50.418Z,21.80
2022-12-16T09:16:15.888Z,20.10
2022-12-16T09:18:39.512Z,19.90
2022-12-16T09:21:00.577Z,17.27
2022-12-16T09:23:22.427Z,16.13
2022-12-16T09:25:42.525Z,16.60
2022-12-16T09:28:03.100Z,17.37
2022-12-16T09:30:24.185Z,15.17
2022-12-16T09:32:44.390Z,16.10
2022-12-16T09:35:08.714Z,15.07
2022-12-16T09:37:33.846Z,16.60
2022-12-16T09:39:53.904Z,16.10
2022-12-16T09:42:39.334Z,23.00
2022-12-16T09:45:12.620Z,17.10
2022-12-16T09:47:42.055Z,15.80
2022-12-16T09:50:07.941Z,16.50
2022-12-16T09:52:37.646Z,15.53
2022-12-16T09:55:03.205Z,17.93
2022-12-16T09:57:24.442Z,16.60
2022-12-16T09:59:53.615Z,17.47
2022-12-16T10:02:14.691Z,15.77
2022-12-16T10:04:35.774Z,16.90
2022-12-16T10:07:10.868Z,16.03
2022-12-16T10:09:43.503Z,15.07
2022-12-16T10:12:22.682Z,16.70
2022-12-16T10:14:51.849Z,17.00
2022-12-16T10:17:28.970Z,17.30
2022-12-16T10:19:56.786Z,17.10
2022-12-16T10:22:26.665Z,17.70
2022-12-16T10:25:11.444Z,21.00
2022-12-16T10:27:39.666Z,19.50
2022-12-16T10:30:02.944Z,17.90
2022-12-16T10:32:46.026Z,20.60
2022-12-16T10:35:06.220Z,17.60
2022-12-16T10:37:52.752Z,27.53
2022-12-16T10:40:18.623Z,19.77
2022-12-16T10:42:46.711Z,17.80
2022-12-16T10:45:13.184Z,18.07
2022-12-16T10:47:33.457Z,17.50
2022-12-16T10:49:54.924Z,15.57
2022-12-16T10:52:15.479Z,17.50
2022-12-16T10:54:38.971Z,17.50
2022-12-16T10:57:40.423Z,17.73
2022-12-16T11:00:01.434Z,15.47
2022-12-16T11:02:39.443Z,18.50
2022-12-16T11:05:00.143Z,22.73
2022-12-16T11:07:20.712Z,14.53
2022-12-16T11:09:48.045Z,16.40
2022-12-16T11:12:08.522Z,20.67
2022-12-16T11:15:12.421Z,20.87
2022-12-16T11:17:33.807Z,19.83
2022-12-16T11:19:54.087Z,18.33
2022-12-16T11:22:26.188Z,15.00
2022-12-16T11:24:47.056Z,15.23
2022-12-16T11:27:16.503Z,15.30
2022-12-16T11:29:37.718Z,22.20
2022-12-16T11:32:01.178Z,17.10
2022-12-16T11:34:22.406Z,17.27
2022-12-16T11:36:49.134Z,16.70
2022-12-16T11:39:11.114Z,15.40
2022-12-16T11:41:43.279Z,17.57
2022-12-16T11:44:07.645Z,14.20
2022-12-16T11:46:45.021Z,18.03
2022-12-16T11:49:11.657Z,16.97
2022-12-16T11:51:33.569Z,17.00
2022-12-16T11:54:08.518Z,17.73
2022-12-16T11:56:34.461Z,21.13
2022-12-16T11:59:08.846Z,13.80
2022-12-16T12:01:32.711Z,16.50
2022-12-16T12:04:01.095Z,18.03
2022-12-16T12:06:46.191Z,16.07
2022-12-16T12:09:28.782Z,16.90
2022-12-16T12:12:02.219Z,16.50
2022-12-16T12:14:34.858Z,18.23
2022-12-16T12:17:04.217Z,20.27
2022-12-16T12:20:00.429Z,15.50
2022-12-16T12:22:28.995Z,20.23
2022-12-16T12:25:10.533Z,20.30
2022-12-16T12:27:37.732Z,15.83
2022-12-16T12:30:16.589Z,17.93
2022-12-16T12:32:56.406Z,15.47
2022-12-16T12:35:27.654Z,14.93
2022-12-16T12:37:55.044Z,16.63
2022-12-16T12:40:41.950Z,20.60
2022-12-16T12:43:13.236Z,19.13
2022-12-16T12:45:36.728Z,18.00
2022-12-16T12:48:03.580Z,18.77
2022-12-16T12:50:40.229Z,17.33
2022-12-16T12:53:23.969Z,14.73
2022-12-16T12:55:52.474Z,16.50
2022-12-16T12:58:13.976Z,15.03
2022-12-16T13:00:39.234Z,17.87
2022-12-16T13:03:18.630Z,26.13
2022-12-16T13:05:39.298Z,17.33
2022-12-16T13:07:59.567Z,16.20
2022-12-16T13:10:50.837Z,16.43
2022-12-16T13:13:35.134Z,18.43
2022-12-16T13:15:58.294Z,17.90
2022-12-16T13:18:18.499Z,20.63
2022-12-16T13:20:50.709Z,16.00
2022-12-16T13:23:12.137Z,17.87
2022-12-16T13:26:08.679Z,17.37
2022-12-16T13:28:39.887Z,14.40
2022-12-16T13:31:24.666Z,17.40
2022-12-16T13:33:50.193Z,17.50
2022-12-16T13:36:15.236Z,20.83
2022-12-16T13:38:40.589Z,15.37
2022-12-16T13:41:11.424Z,15.93
2022-12-16T13:44:05.440Z,17.43
2022-12-16T13:46:25.975Z,18.80
2022-12-16T13:48:55.838Z,18.20
2022-12-16T13:51:19.152Z,18.23
2022-12-16T13:53:44.034Z,16.80
2022-12-16T13:56:10.322Z,15.93
2022-12-16T13:58:47.384Z,17.40
2022-12-16T14:01:17.604Z,21.07
2022-12-16T14:03:44.624Z,17.93
2022-12-16T14:06:04.810Z,22.40
2022-12-16T14:08:30.198Z,17.83
2022-12-16T14:10:54.741Z,19.10
2022-12-16T14:13:34.454Z,16.13
2022-12-16T14:16:23.461Z,14.70
2022-12-16T14:19:20.984Z,19.77
2022-12-16T14:21:58.741Z,16.63
2022-12-16T14:24:46.023Z,15.97
2022-12-16T14:27:06.330Z,18.37
2022-12-16T14:29:40.827Z,16.93
2022-12-16T14:32:02.704Z,18.63
2022-12-16T14:34:30.230Z,17.00
2022-12-16T14:36:58.807Z,16.23
2022-12-16T14:39:32.664Z,16.80
2022-12-16T14:41:53.285Z,13.37
2022-12-16T14:44:13.492Z,19.30
2022-12-16T14:46:47.600Z,14.23
2022-12-16T14:49:09.757Z,18.57
2022-12-16T14:51:44.945Z,16.10
2022-12-16T14:54:05.179Z,12.90
2022-12-16T14:56:34.762Z,14.40
2022-12-16T14:58:54.785Z,12.73
2022-12-16T15:01:24.254Z,15.40
2022-12-16T15:04:05.717Z,15.97
2022-12-16T15:06:31.356Z,11.77
2022-12-16T15:08:55.271Z,15.60
2022-12-16T15:11:18.727Z,14.30
2022-12-16T15:13:39.379Z,18.60
2022-12-16T15:16:08.320Z,19.23
2022-12-16T15:18:36.888Z,14.43
2022-12-16T15:21:10.269Z,16.50
2022-12-16T15:23:44.527Z,13.57
2022-12-16T15:26:09.957Z,14.50
2022-12-16T15:28:56.049Z,14.40
2022-12-16T15:31:16.373Z,16.73
2022-12-16T15:33:38.535Z,18.47
2022-12-16T15:35:58.791Z,15.50
2022-12-16T15:38:18.985Z,16.73
2022-12-16T15:40:49.105Z,15.20
2022-12-16T15:43:11.041Z,17.97
2022-12-16T15:45:52.002Z,17.30
2022-12-16T15:48:12.271Z,14.03
2022-12-16T15:50:34.679Z,19.80
2022-12-16T15:53:01.331Z,14.70
2022-12-16T15:55:21.529Z,20.50
2022-12-16T15:57:49.764Z,22.93
2022-12-16T16:00:17.946Z,18.90
2022-12-16T16:02:45.817Z,17.27
2022-12-16T16:05:06.574Z,16.70
2022-12-16T16:07:41.717Z,16.33
2022-12-16T16:10:02.492Z,13.13
2022-12-16T16:12:22.744Z,15.10
2022-12-16T16:14:43.067Z,14.13
2022-12-16T16:17:03.365Z,19.87
2022-12-16T16:19:33.637Z,20.37
2022-12-16T16:21:54.193Z,13.00
2022-12-16T16:24:14.391Z,16.67
2022-12-16T16:26:38.054Z,16.03
2022-12-16T16:28:58.384Z,16.90
2022-12-16T16:31:18.751Z,13.80
2022-12-16T16:33:38.993Z,13.33
2022-12-16T16:35:59.343Z,15.13
2022-12-16T16:38:19.671Z,13.20
2022-12-16T16:41:06.614Z,15.60
2022-12-16T16:43:27.174Z,16.00
2022-12-16T16:45:47.594Z,15.93
2022-12-16T16:48:07.954Z,16.47
2022-12-16T16:50:33.350Z,13.87
2022-12-16T16:52:53.608Z,14.60
2022-12-16T16:55:14.025Z,14.17
2022-12-16T16:57:34.553Z,20.00
2022-12-16T16:59:54.773Z,23.77
2022-12-16T17:02:15.565Z,23.47
2022-12-16T17:04:36.154Z,14.97
2022-12-16T17:06:56.276Z,17.93
2022-12-16T17:09:16.311Z,16.73
2022-12-16T17:11:38.748Z,20.20
2022-12-16T17:14:00.045Z,18.40
2022-12-16T17:16:20.201Z,17.77
2022-12-16T17:18:45.622Z,16.47
2022-12-16T17:21:08.467Z,16.67
2022-12-16T17:23:28.546Z,14.40
2022-12-16T17:25:48.961Z,18.13
2022-12-16T17:28:09.225Z,17.07
2022-12-16T17:30:44.931Z,18.40
2022-12-16T17:33:07.496Z,16.40
2022-12-16T17:35:30.464Z,21.40
2022-12-16T17:37:51.100Z,20.57
2022-12-16T17:40:11.359Z,25.33
2022-12-16T17:42:31.678Z,18.07
2022-12-16T17:44:52.148Z,17.47
2022-12-16T17:47:12.938Z,17.77
2022-12-16T17:49:33.193Z,18.63
2022-12-16T17:51:53.390Z,16.47
2022-12-16T17:54:22.662Z,20.80
2022-12-16T17:56:45.402Z,20.03
2022-12-16T17:59:05.908Z,18.23
2022-12-16T18:01:26.391Z,16.20
2022-12-16T18:03:46.600Z,20.73
2022-12-16T18:06:06.852Z,18.87
2022-12-16T18:08:27.535Z,21.07
2022-12-16T18:10:47.773Z,19.40
2022-12-16T18:13:08.194Z,17.03
2022-12-16T18:15:28.804Z,20.67
2022-12-16T18:17:49.068Z,19.50
2022-12-16T18:20:09.256Z,19.33
2022-12-16T18:22:29.426Z,18.03
2022-12-16T18:24:49.868Z,19.40
2022-12-16T18:27:10.230Z,18.67
2022-12-16T18:29:30.565Z,19.33
2022-12-16T18:31:51.318Z,19.80
2022-12-16T18:34:11.803Z,20.87
2022-12-16T18:36:32.145Z,21.40
2022-12-16T18:38:52.506Z,21.23
2022-12-16T18:41:21.465Z,21.23
2022-12-16T18:43:41.437Z,22.10
2022-12-16T18:46:01.656Z,21.43
2022-12-16T18:48:22.131Z,18.60
2022-12-16T18:50:42.327Z,23.23
2022-12-16T18:53:02.437Z,19.40
2022-12-16T18:55:23.804Z,18.17
2022-12-16T18:57:44.010Z,20.03
2022-12-16T19:00:04.174Z,19.70
2022-12-16T19:02:25.177Z,21.10
2022-12-16T19:04:45.918Z,23.10
2022-12-16T19:07:06.093Z,21.10
2022-12-16T19:09:26.395Z,27.17
2022-12-16T19:11:46.971Z,21.50
2022-12-16T19:14:07.970Z,25.10
2022-12-16T19:16:28.438Z,25.07
2022-12-16T19:18:48.641Z,22.53
2022-12-16T19:21:13.740Z,27.77
2022-12-16T19:23:34.398Z,24.93
2022-12-16T19:25:54.865Z,20.57
2022-12-16T19:28:17.252Z,33.47
2022-12-16T19:30:37.505Z,43.70
2022-12-16T19:32:57.872Z,27.97
2022-12-16T19:35:18.460Z,28.23
2022-12-16T19:37:38.962Z,28.37
2022-12-16T19:39:59.162Z,26.30
2022-12-16T19:42:19.403Z,27.50
2022-12-16T19:44:40.024Z,30.13
2022-12-16T19:47:00.200Z,36.43
2022-12-16T19:49:20.600Z,30.73
2022-12-16T19:51:40.841Z,30.90
2022-12-16T19:54:01.766Z,26.10
2022-12-16T19:56:22.617Z,29.10
2022-12-16T19:58:42.840Z,32.60
2022-12-16T20:01:03.098Z,28.33
2022-12-16T20:03:23.288Z,31.97
2022-12-16T20:05:43.781Z,29.90
2022-12-16T20:08:04.038Z,31.73
2022-12-16T20:10:24.704Z,31.70
2022-12-16T20:12:48.568Z,31.83
2022-12-16T20:15:08.988Z,28.00
2022-12-16T20:17:29.800Z,28.87
2022-12-16T20:19:51.164Z,36.13
2022-12-16T20:22:16.325Z,30.50
2022-12-16T20:24:36.948Z,30.63
2022-12-16T20:26:57.549Z,26.70
2022-12-16T20:29:17.802Z,34.40
2022-12-16T20:31:38.322Z,31.90
2022-12-16T20:34:02.899Z,38.87
2022-12-16T20:36:24.275Z,38.63
2022-12-16T20:38:44.599Z,40.23
2022-12-16T20:41:15.197Z,40.67
2022-12-16T20:43:35.540Z,46.07
2022-12-16T20:45:56.234Z,42.73
2022-12-16T20:48:16.521Z,40.47
2022-12-16T20:50:36.820Z,48.33
2022-12-16T20:52:57.334Z,50.77
2022-12-16T20:55:17.534Z,40.07
2022-12-16T20:57:37.887Z,42.63
2022-12-16T20:59:58.359Z,40.77
2022-12-16T21:02:23.779Z,31.90
2022-12-16T21:04:45.287Z,31.43
2022-12-16T21:07:05.419Z,33.83
2022-12-16T21:09:25.902Z,31.73
2022-12-16T21:11:46.972Z,29.77
2022-12-16T21:14:07.540Z,28.43
2022-12-16T21:16:27.916Z,29.40
2022-12-16T21:18:48.251Z,30.03
2022-12-16T21:21:12.481Z,24.93
2022-12-16T21:23:32.522Z,23.60
2022-12-16T21:25:53.096Z,23.00
2022-12-16T21:28:17.705Z,29.17
2022-12-16T21:30:38.346Z,28.13
2022-12-16T21:32:58.517Z,26.63
2022-12-16T21:35:18.916Z,24.80
2022-12-16T21:37:39.156Z,32.97
2022-12-16T21:39:59.320Z,38.37
2022-12-16T21:42:19.533Z,42.60
2022-12-16T21:44:53.790Z,41.20
2022-12-16T21:47:16.983Z,37.43
2022-12-16T21:49:37.096Z,33.40
2022-12-16T21:51:57.441Z,32.17
2022-12-16T21:54:17.883Z,30.53
2022-12-16T21:56:37.984Z,30.87
2022-12-16T21:58:58.122Z,33.27
2022-12-16T22:01:18.506Z,25.60
2022-12-16T22:03:39.229Z,27.07
2022-12-16T22:05:59.790Z,27.43
2022-12-16T22:08:45.216Z,24.20
2022-12-16T22:11:05.952Z,26.47
2022-12-16T22:13:26.084Z,24.13
2022-12-16T22:15:46.458Z,25.10
2022-12-16T22:18:06.711Z,26.00
2022-12-16T22:20:27.352Z,28.50
2022-12-16T22:22:47.809Z,25.70
2022-12-16T22:27:49.040Z,29.50
2022-12-16T22:30:09.445Z,36.67
2022-12-16T22:32:30.192Z,29.33
2022-12-16T22:34:50.405Z,34.97
2022-12-16T22:37:10.720Z,29.40
2022-12-16T22:39:31.131Z,41.03
2022-12-16T22:41:53.178Z,39.87
2022-12-16T22:44:13.439Z,37.17
2022-12-16T22:46:34.272Z,44.70
2022-12-16T22:48:56.215Z,38.73
2022-12-16T22:51:16.806Z,31.63
2022-12-16T22:53:37.314Z,38.47
2022-12-16T22:56:01.821Z,35.27
2022-12-16T22:58:37.769Z,39.17
2022-12-16T23:00:58.026Z,40.10
2022-12-16T23:03:18.184Z,33.90
2022-12-16T23:05:38.631Z,36.43
2022-12-16T23:07:58.861Z,36.70
2022-12-16T23:10:18.883Z,40.60
2022-12-16T23:12:40.048Z,46.37
2022-12-16T23:15:00.240Z,47.30
2022-12-16T23:17:20.527Z,41.53
2022-12-16T23:19:40.867Z,39.77
2022-12-16T23:22:00.828Z,34.50
2022-12-16T23:24:20.977Z,54.30
2022-12-16T23:26:41.314Z,55.03
2022-12-16T23:29:12.461Z,61.00
2022-12-16T23:31:32.918Z,40.30
2022-12-16T23:33:53.638Z,50.07
2022-12-16T23:36:16.917Z,99.00
2022-12-16T23:38:37.238Z,46.03
2022-12-16T23:40:57.347Z,38.97
2022-12-16T23:43:17.937Z,45.50
2022-12-16T23:45:38.165Z,66.10
2022-12-16T23:47:58.393Z,144.13
2022-12-16T23:50:18.729Z,44.63
2022-12-16T23:52:39.024Z,36.17
2022-12-16T23:54:59.447Z,41.87
2022-12-16T23:57:19.744Z,30.83
2022-12-16T23:59:39.901Z,39.93
